Time;durP1;ratioP1;P1;durP2;ratioP2;P2;SDS_P1;SDS_P2;PMS_P1;PMS_P2;Temp;Humidity;BMP_temperature;BMP_pressure;BME280_temperature;BME280_humidity;BME280_pressure;Samples;Min_cycle;Max_cycle;Signal;HPM_P1;HPM_P2
2023/03/07 00:01:06;;;;;;;12.07;10.33;;;;;;;;;;5008861;28;20192;-84
2023/03/07 00:03:35;;;;;;;12.87;10.47;;;;;;;;;;4993314;28;20188;-84
2023/03/07 00:06:14;;;;;;;11.63;10.43;;;;;;;;;;5010133;28;20213;-85
2023/03/07 00:08:40;;;;;;;12.20;10.43;;;;;;;;;;5007947;28;20184;-85
2023/03/07 00:11:07;;;;;;;11.90;10.40;;;;;;;;;;5006668;28;20192;-85
2023/03/07 00:13:34;;;;;;;12.93;10.20;;;;;;;;;;5002483;28;20268;-85
2023/03/07 00:16:07;;;;;;;12.70;10.03;;;;;;;;;;5010659;28;20185;-85
2023/03/07 00:18:36;;;;;;;11.90;10.17;;;;;;;;;;5016041;28;20235;-85
2023/03/07 00:21:07;;;;;;;12.10;10.43;;;;;;;;;;5010495;28;20185;-84
2023/03/07 00:23:37;;;;;;;12.37;10.43;;;;;;;;;;4998965;28;20201;-85
2023/03/07 00:26:10;;;;;;;11.10;9.90;;;;;;;;;;5005785;28;20229;-85
2023/03/07 00:28:36;;;;;;;11.00;9.80;;;;;;;;;;5001322;28;20247;-85
2023/03/07 00:31:03;;;;;;;11.47;9.77;;;;;;;;;;5022101;28;20174;-86
2023/03/07 00:33:32;;;;;;;10.17;9.13;;;;;;;;;;4999083;28;20181;-85
2023/03/07 00:36:02;;;;;;;12.50;9.60;;;;;;;;;;5003655;28;20185;-85
2023/03/07 00:38:31;;;;;;;14.37;9.90;;;;;;;;;;5035230;28;20238;-86
2023/03/07 00:40:58;;;;;;;10.37;9.20;;;;;;;;;;5012098;28;20173;-85
2023/03/07 00:43:42;;;;;;;11.80;8.53;;;;;;;;;;4998580;28;20186;-86
2023/03/07 00:46:08;;;;;;;12.30;9.00;;;;;;;;;;5002594;28;20204;-85
2023/03/07 00:48:36;;;;;;;10.60;8.80;;;;;;;;;;5018149;28;20191;-85
2023/03/07 00:51:02;;;;;;;9.53;7.83;;;;;;;;;;5017012;28;20188;-85
2023/03/07 00:53:29;;;;;;;8.73;7.57;;;;;;;;;;5018441;28;20244;-84
2023/03/07 00:55:55;;;;;;;10.23;7.40;;;;;;;;;;5016904;28;20184;-84
2023/03/07 00:58:24;;;;;;;8.90;7.97;;;;;;;;;;5000903;28;20193;-85
2023/03/07 01:00:50;;;;;;;10.30;8.00;;;;;;;;;;5009093;28;20275;-84
2023/03/07 01:03:17;;;;;;;12.47;8.27;;;;;;;;;;5011128;28;20207;-85
2023/03/07 01:05:45;;;;;;;9.77;7.83;;;;;;;;;;5018043;28;20204;-85
2023/03/07 01:08:12;;;;;;;11.17;8.47;;;;;;;;;;5017377;28;20195;-85
2023/03/07 01:10:38;;;;;;;13.17;9.53;;;;;;;;;;5017263;28;20177;-85
2023/03/07 01:13:08;;;;;;;9.43;8.43;;;;;;;;;;5000564;28;20193;-85
2023/03/07 01:15:34;;;;;;;10.13;9.10;;;;;;;;;;4998143;28;20182;-85
2023/03/07 01:18:00;;;;;;;14.93;9.50;;;;;;;;;;5000394;28;20208;-85
2023/03/07 01:20:32;;;;;;;14.57;11.17;;;;;;;;;;5005320;28;20181;-85
2023/03/07 01:22:58;;;;;;;15.80;10.70;;;;;;;;;;5003123;28;20185;-84
2023/03/07 01:25:24;;;;;;;13.67;10.83;;;;;;;;;;5006944;28;20236;-85
2023/03/07 01:27:57;;;;;;;14.20;11.67;;;;;;;;;;5015847;28;20196;-85
2023/03/07 01:30:26;;;;;;;21.07;12.00;;;;;;;;;;5009056;28;20216;-85
2023/03/07 01:32:56;;;;;;;15.93;12.20;;;;;;;;;;5006432;28;20173;-85
2023/03/07 01:35:25;;;;;;;15.20;12.47;;;;;;;;;;5017213;28;20185;-84
2023/03/07 01:37:52;;;;;;;18.40;12.73;;;;;;;;;;5015450;28;20188;-84
2023/03/07 01:40:19;;;;;;;16.97;13.40;;;;;;;;;;5009690;28;20240;-85
2023/03/07 01:42:51;;;;;;;16.17;13.03;;;;;;;;;;5008059;28;20184;-85
2023/03/07 01:45:35;;;;;;;15.10;13.00;;;;;;;;;;5017123;28;20291;-85
2023/03/07 01:48:01;;;;;;;19.23;12.23;;;;;;;;;;5002809;28;20205;-85
2023/03/07 01:50:27;;;;;;;19.13;13.40;;;;;;;;;;4989652;28;20208;-85
2023/03/07 01:52:59;;;;;;;17.77;13.07;;;;;;;;;;5016376;28;20235;-84
2023/03/07 01:55:56;;;;;;;17.87;12.87;;;;;;;;;;5007978;28;20231;-85
2023/03/07 01:58:25;;;;;;;18.27;12.70;;;;;;;;;;5009086;28;20283;-84
2023/03/07 02:00:57;;;;;;;18.30;13.07;;;;;;;;;;5005465;28;20185;-84
2023/03/07 02:03:33;;;;;;;21.07;12.77;;;;;;;;;;5010101;28;20188;-84
2023/03/07 02:06:17;;;;;;;;;;;;;;;;;;;;;
2023/03/07 02:08:45;;;;;;;17.17;11.17;;;;;;;;;;5016390;28;20211;-85
2023/03/07 02:11:11;;;;;;;13.87;10.93;;;;;;;;;;5010317;28;20187;-85
2023/03/07 02:13:40;;;;;;;15.23;10.80;;;;;;;;;;5016553;28;20180;-85
2023/03/07 02:16:10;;;;;;;14.63;11.37;;;;;;;;;;5001507;28;20209;-84
2023/03/07 02:18:40;;;;;;;15.70;11.50;;;;;;;;;;5009231;28;20193;-85
2023/03/07 02:21:33;;;;;;;17.27;10.63;;;;;;;;;;5014488;28;20188;-85
2023/03/07 02:24:14;;;;;;;16.20;11.40;;;;;;;;;;5015911;28;20187;-85
2023/03/07 02:26:44;;;;;;;13.83;10.87;;;;;;;;;;5015066;28;20266;-84
2023/03/07 02:29:14;;;;;;;13.07;10.80;;;;;;;;;;5013949;28;20184;-84
2023/03/07 02:31:42;;;;;;;17.40;11.63;;;;;;;;;;5014633;28;20177;-84
2023/03/07 02:34:22;;;;;;;15.53;11.97;;;;;;;;;;5000379;28;20184;-85
2023/03/07 02:36:50;;;;;;;13.07;11.13;;;;;;;;;;4997236;28;20262;-85
2023/03/07 02:39:24;;;;;;;12.67;11.13;;;;;;;;;;4998544;28;20220;-85
2023/03/07 02:41:52;;;;;;;12.10;10.33;;;;;;;;;;5000943;28;20207;-84
2023/03/07 02:44:21;;;;;;;12.07;10.80;;;;;;;;;;4999798;28;20268;-84
2023/03/07 02:46:47;;;;;;;10.67;9.57;;;;;;;;;;5002586;28;20208;-84
2023/03/07 02:49:13;;;;;;;11.90;9.10;;;;;;;;;;5015057;28;20185;-85
2023/03/07 02:51:39;;;;;;;11.20;9.50;;;;;;;;;;5012993;28;20239;-84
2023/03/07 02:54:13;;;;;;;9.50;8.47;;;;;;;;;;4996595;28;20189;-84
2023/03/07 02:56:41;;;;;;;12.03;9.30;;;;;;;;;;5004140;28;20188;-84
2023/03/07 02:59:08;;;;;;;13.07;9.03;;;;;;;;;;5015677;28;20212;-84
2023/03/07 03:01:34;;;;;;;12.63;8.63;;;;;;;;;;4996521;28;20189;-85
2023/03/07 03:04:00;;;;;;;12.63;9.80;;;;;;;;;;5024712;28;20188;-84
2023/03/07 03:06:29;;;;;;;14.87;9.43;;;;;;;;;;5010350;28;20216;-84
2023/03/07 03:08:57;;;;;;;12.13;8.80;;;;;;;;;;5013409;28;20185;-84
2023/03/07 03:11:23;;;;;;;13.40;9.80;;;;;;;;;;4998639;28;20197;-84
2023/03/07 03:13:49;;;;;;;14.00;9.53;;;;;;;;;;5015502;28;20184;-84
2023/03/07 03:16:16;;;;;;;14.17;9.77;;;;;;;;;;5008803;28;20185;-84
2023/03/07 03:18:44;;;;;;;11.20;9.20;;;;;;;;;;5027768;28;20271;-84
2023/03/07 03:21:11;;;;;;;14.73;9.17;;;;;;;;;;5015958;28;20211;-85
2023/03/07 03:23:37;;;;;;;10.70;9.17;;;;;;;;;;5015521;28;20247;-85
2023/03/07 03:26:14;;;;;;;12.40;9.20;;;;;;;;;;5015011;28;20232;-84
2023/03/07 03:28:40;;;;;;;12.40;8.43;;;;;;;;;;5014981;28;20191;-85
2023/03/07 03:31:13;;;;;;;11.37;8.53;;;;;;;;;;5015778;28;20181;-85
2023/03/07 03:33:40;;;;;;;10.80;8.37;;;;;;;;;;5015578;28;20238;-85
2023/03/07 03:36:15;;;;;;;13.67;7.67;;;;;;;;;;5015134;28;20261;-85
2023/03/07 03:38:45;;;;;;;11.90;7.43;;;;;;;;;;5011883;28;20203;-84
2023/03/07 03:41:13;;;;;;;12.97;7.73;;;;;;;;;;5015602;28;20185;-85
2023/03/07 03:43:47;;;;;;;14.80;7.77;;;;;;;;;;5008613;28;20174;-85
2023/03/07 03:46:13;;;;;;;13.20;7.17;;;;;;;;;;5006556;28;20217;-85
2023/03/07 03:48:42;;;;;;;13.60;7.23;;;;;;;;;;4998790;28;20228;-85
2023/03/07 03:51:14;;;;;;;11.40;7.50;;;;;;;;;;4979950;28;20213;-85
2023/03/07 03:53:43;;;;;;;12.47;7.70;;;;;;;;;;5002664;28;20180;-85
2023/03/07 03:56:12;;;;;;;14.53;7.93;;;;;;;;;;4999390;28;20180;-84
2023/03/07 03:58:41;;;;;;;12.70;8.07;;;;;;;;;;5004165;28;20208;-85
2023/03/07 04:01:09;;;;;;;13.27;8.60;;;;;;;;;;5015894;28;20267;-85
2023/03/07 04:03:45;;;;;;;11.90;8.80;;;;;;;;;;5012070;28;20185;-85
2023/03/07 04:06:15;;;;;;;14.83;9.03;;;;;;;;;;5000600;28;20247;-85
2023/03/07 04:08:50;;;;;;;13.10;9.57;;;;;;;;;;5008370;28;20192;-85
2023/03/07 04:11:16;;;;;;;15.07;10.33;;;;;;;;;;5007045;28;20172;-85
2023/03/07 04:13:45;;;;;;;14.43;9.90;;;;;;;;;;5006293;28;20177;-85
2023/03/07 04:16:14;;;;;;;16.47;10.20;;;;;;;;;;5008582;28;20261;-85
2023/03/07 04:18:40;;;;;;;17.73;10.63;;;;;;;;;;5014013;28;20192;-84
2023/03/07 04:21:06;;;;;;;13.87;10.40;;;;;;;;;;5009812;28;20184;-84
2023/03/07 04:23:35;;;;;;;15.27;10.77;;;;;;;;;;5009590;28;20180;-85
2023/03/07 04:26:02;;;;;;;16.63;11.60;;;;;;;;;;5012550;28;20229;-85
2023/03/07 04:28:42;;;;;;;17.53;11.47;;;;;;;;;;5012274;28;20213;-84
2023/03/07 04:31:09;;;;;;;18.50;11.80;;;;;;;;;;5015007;28;20195;-85
2023/03/07 04:33:35;;;;;;;18.17;12.60;;;;;;;;;;5014596;28;20173;-84
2023/03/07 04:36:01;;;;;;;20.77;12.50;;;;;;;;;;5009198;28;20177;-84
2023/03/07 04:38:37;;;;;;;16.67;12.07;;;;;;;;;;5008158;28;20189;-84
2023/03/07 04:41:07;;;;;;;17.67;11.53;;;;;;;;;;5008626;28;20180;-84
2023/03/07 04:43:33;;;;;;;20.60;11.57;;;;;;;;;;5011690;28;20184;-84
2023/03/07 04:45:59;;;;;;;17.87;11.67;;;;;;;;;;5007323;28;20249;-85
2023/03/07 04:48:28;;;;;;;16.03;10.00;;;;;;;;;;5008132;28;20177;-84
2023/03/07 04:50:54;;;;;;;13.33;8.73;;;;;;;;;;5013735;28;20259;-84
2023/03/07 04:53:21;;;;;;;11.70;8.00;;;;;;;;;;5014388;28;20272;-84
2023/03/07 04:55:50;;;;;;;12.73;7.57;;;;;;;;;;5007363;28;20189;-84
2023/03/07 04:58:16;;;;;;;13.03;7.17;;;;;;;;;;5007789;28;20193;-84
2023/03/07 05:00:43;;;;;;;12.10;7.57;;;;;;;;;;5007973;28;20276;-84
2023/03/07 05:03:14;;;;;;;10.00;6.23;;;;;;;;;;5013290;28;20208;-84
2023/03/07 05:05:40;;;;;;;12.67;6.23;;;;;;;;;;5008239;28;20219;-84
2023/03/07 05:08:12;;;;;;;12.50;6.67;;;;;;;;;;5004229;28;20204;-84
2023/03/07 05:10:38;;;;;;;11.83;6.97;;;;;;;;;;5027107;28;20177;-84
2023/03/07 05:13:06;;;;;;;10.97;6.00;;;;;;;;;;5010928;28;20177;-85
2023/03/07 05:15:35;;;;;;;12.80;5.53;;;;;;;;;;5007479;28;20253;-85
2023/03/07 05:18:01;;;;;;;9.97;5.27;;;;;;;;;;5032337;28;20258;-84
2023/03/07 05:20:28;;;;;;;8.30;5.63;;;;;;;;;;5015511;28;20185;-85
2023/03/07 05:22:57;;;;;;;10.63;5.33;;;;;;;;;;5017032;28;20224;-84
2023/03/07 05:25:23;;;;;;;13.03;6.37;;;;;;;;;;4988887;28;20323;-84
2023/03/07 05:27:49;;;;;;;12.17;5.90;;;;;;;;;;5034557;28;20176;-85
2023/03/07 05:30:22;;;;;;;10.80;5.90;;;;;;;;;;5012607;28;20180;-84
2023/03/07 05:32:50;;;;;;;12.97;6.10;;;;;;;;;;5015159;28;20183;-85
2023/03/07 05:35:23;;;;;;;9.93;6.03;;;;;;;;;;5011944;28;20247;-84
2023/03/07 05:37:49;;;;;;;10.00;6.40;;;;;;;;;;5005081;28;20177;-84
2023/03/07 05:40:18;;;;;;;13.40;6.70;;;;;;;;;;4999127;28;20188;-84
2023/03/07 05:42:47;;;;;;;12.00;7.83;;;;;;;;;;5012728;28;20191;-84
2023/03/07 05:45:34;;;;;;;20.63;9.53;;;;;;;;;;5000919;28;20217;-85
2023/03/07 05:48:02;;;;;;;14.90;9.43;;;;;;;;;;5019097;28;20192;-84
2023/03/07 05:50:29;;;;;;;15.20;9.07;;;;;;;;;;5002541;28;20184;-84
2023/03/07 05:53:05;;;;;;;15.63;9.27;;;;;;;;;;5016084;28;20192;-85
2023/03/07 05:55:31;;;;;;;13.53;8.70;;;;;;;;;;5006031;28;20183;-84
2023/03/07 05:58:00;;;;;;;14.50;8.03;;;;;;;;;;5017168;28;20231;-84
2023/03/07 06:00:29;;;;;;;13.50;7.83;;;;;;;;;;5016460;28;20184;-84
2023/03/07 06:02:55;;;;;;;14.23;8.07;;;;;;;;;;5004268;28;20192;-84
2023/03/07 06:05:27;;;;;;;9.40;6.37;;;;;;;;;;5000262;28;20208;-84
2023/03/07 06:08:02;;;;;;;9.37;5.33;;;;;;;;;;5016862;28;20181;-84
2023/03/07 06:10:45;;;;;;;;;;;;;;;;;;;;;
2023/03/07 06:13:16;;;;;;;8.13;4.60;;;;;;;;;;5030087;28;20188;-84
2023/03/07 06:15:59;;;;;;;6.93;4.50;;;;;;;;;;5010580;28;20185;-84
2023/03/07 06:18:26;;;;;;;6.67;4.40;;;;;;;;;;5016785;28;20216;-85
2023/03/07 06:20:57;;;;;;;9.20;4.67;;;;;;;;;;5016234;28;20189;-84
2023/03/07 06:23:26;;;;;;;7.87;4.30;;;;;;;;;;5000584;28;20185;-85
2023/03/07 06:25:54;;;;;;;9.23;4.77;;;;;;;;;;5013990;28;20323;-85
2023/03/07 06:28:24;;;;;;;7.23;4.10;;;;;;;;;;5015229;28;20297;-84
2023/03/07 06:30:53;;;;;;;6.67;4.43;;;;;;;;;;5016007;28;20165;-83
2023/03/07 06:33:46;;;;;;;3.93;2.63;;;;;;;;;;5012125;28;20177;-84
2023/03/07 06:36:20;;;;;;;3.37;2.37;;;;;;;;;;5023973;28;20180;-85
2023/03/07 06:38:47;;;;;;;4.93;2.53;;;;;;;;;;5007993;28;20240;-85
2023/03/07 06:41:15;;;;;;;7.33;2.23;;;;;;;;;;5011534;28;20184;-85
2023/03/07 06:43:44;;;;;;;8.30;2.40;;;;;;;;;;5007575;28;20181;-85
2023/03/07 06:46:21;;;;;;;5.57;1.90;;;;;;;;;;5007079;28;20208;-85
2023/03/07 06:48:50;;;;;;;5.57;1.83;;;;;;;;;;5013565;28;20176;-86
2023/03/07 06:51:19;;;;;;;4.37;1.77;;;;;;;;;;5012347;28;20193;-85
2023/03/07 06:53:50;;;;;;;4.27;1.60;;;;;;;;;;5007135;28;20188;-85
2023/03/07 06:56:16;;;;;;;5.27;1.53;;;;;;;;;;5003702;28;20189;-86
2023/03/07 06:58:43;;;;;;;7.43;1.60;;;;;;;;;;5009102;28;20192;-85
2023/03/07 07:01:28;;;;;;;3.47;1.53;;;;;;;;;;5006746;28;20192;-85
2023/03/07 07:03:57;;;;;;;7.87;1.70;;;;;;;;;;5013218;28;20184;-84
2023/03/07 07:06:23;;;;;;;5.20;1.87;;;;;;;;;;5005141;28;20212;-85
2023/03/07 07:08:49;;;;;;;3.60;1.50;;;;;;;;;;5007901;28;20187;-84
2023/03/07 07:11:15;;;;;;;4.10;1.50;;;;;;;;;;5002374;28;20183;-84
2023/03/07 07:13:44;;;;;;;5.57;1.70;;;;;;;;;;5010256;28;20429;-84
2023/03/07 07:16:13;;;;;;;5.60;1.80;;;;;;;;;;5008171;28;20279;-84
2023/03/07 07:18:42;;;;;;;4.57;1.90;;;;;;;;;;5006634;28;20253;-84
2023/03/07 07:21:08;;;;;;;2.97;1.67;;;;;;;;;;5010329;28;20181;-83
2023/03/07 07:23:34;;;;;;;4.43;2.30;;;;;;;;;;5015731;28;20184;-84
2023/03/07 07:26:00;;;;;;;4.60;1.77;;;;;;;;;;5014516;28;20232;-83
2023/03/07 07:28:26;;;;;;;6.57;2.40;;;;;;;;;;5014861;28;20180;-84
2023/03/07 07:30:52;;;;;;;3.10;1.97;;;;;;;;;;5008730;28;20173;-84
2023/03/07 07:33:19;;;;;;;4.67;2.13;;;;;;;;;;5005530;28;20235;-83
2023/03/07 07:35:45;;;;;;;4.17;2.03;;;;;;;;;;5025126;28;20239;-84
2023/03/07 07:38:14;;;;;;;3.13;1.70;;;;;;;;;;5006484;28;20200;-85
2023/03/07 07:40:40;;;;;;;3.27;1.97;;;;;;;;;;5009251;28;20212;-85
2023/03/07 07:43:07;;;;;;;4.90;1.97;;;;;;;;;;4997989;28;20186;-83
2023/03/07 07:45:35;;;;;;;4.00;1.70;;;;;;;;;;5002704;28;20205;-85
2023/03/07 07:48:04;;;;;;;5.10;1.83;;;;;;;;;;5005787;28;20264;-85
2023/03/07 07:50:30;;;;;;;2.97;2.30;;;;;;;;;;5010827;28;20259;-84
2023/03/07 07:52:59;;;;;;;4.20;1.90;;;;;;;;;;5016193;28;20288;-84
2023/03/07 07:55:25;;;;;;;2.57;1.70;;;;;;;;;;5001420;28;20185;-84
2023/03/07 07:57:51;;;;;;;4.57;1.73;;;;;;;;;;5010578;28;20187;-84
2023/03/07 08:00:20;;;;;;;3.17;1.93;;;;;;;;;;5000382;28;20181;-84
2023/03/07 08:02:48;;;;;;;3.70;2.00;;;;;;;;;;5009474;28;20182;-84
2023/03/07 08:05:19;;;;;;;3.73;2.00;;;;;;;;;;5017450;28;20189;-85
2023/03/07 08:07:45;;;;;;;3.93;2.00;;;;;;;;;;5016100;28;20181;-85
2023/03/07 08:10:14;;;;;;;3.47;2.10;;;;;;;;;;5017705;28;20185;-84
2023/03/07 08:12:54;;;;;;;3.20;2.10;;;;;;;;;;5003820;28;20188;-84
2023/03/07 08:15:20;;;;;;;4.37;2.43;;;;;;;;;;5012352;28;20334;-84
2023/03/07 08:17:57;;;;;;;3.23;2.07;;;;;;;;;;5011722;28;20219;-84
2023/03/07 08:20:31;;;;;;;3.60;2.20;;;;;;;;;;5007401;28;20199;-84
2023/03/07 08:22:57;;;;;;;4.17;2.47;;;;;;;;;;5010274;28;20177;-84
2023/03/07 08:25:26;;;;;;;4.00;2.20;;;;;;;;;;4871374;28;4055074;-84
2023/03/07 08:27:56;;;;;;;5.33;2.20;;;;;;;;;;5015914;28;20185;-85
2023/03/07 08:30:27;;;;;;;4.87;2.60;;;;;;;;;;5017053;28;20196;-84
2023/03/07 08:32:54;;;;;;;4.47;2.57;;;;;;;;;;5006052;28;20182;-84
2023/03/07 08:35:20;;;;;;;7.17;2.50;;;;;;;;;;4982850;28;20216;-84
2023/03/07 08:37:53;;;;;;;5.43;2.20;;;;;;;;;;5010751;28;20181;-85
2023/03/07 08:40:19;;;;;;;3.80;2.10;;;;;;;;;;5018292;28;20187;-83
2023/03/07 08:42:54;;;;;;;4.63;2.40;;;;;;;;;;5017915;28;20181;-84
2023/03/07 08:45:23;;;;;;;3.70;2.60;;;;;;;;;;5015801;28;20207;-84
2023/03/07 08:47:58;;;;;;;4.83;2.50;;;;;;;;;;5017157;28;20185;-87
2023/03/07 08:50:35;;;;;;;5.10;2.70;;;;;;;;;;5018395;28;20246;-86
2023/03/07 08:53:08;;;;;;;6.03;2.70;;;;;;;;;;5008016;28;20180;-86
2023/03/07 08:55:47;;;;;;;4.07;3.30;;;;;;;;;;5017238;28;20180;-85
2023/03/07 08:58:26;;;;;;;4.70;3.20;;;;;;;;;;5004123;28;20248;-85
2023/03/07 09:00:55;;;;;;;6.67;3.67;;;;;;;;;;5025181;28;20189;-86
2023/03/07 09:03:21;;;;;;;6.60;4.47;;;;;;;;;;5008484;28;20189;-85
2023/03/07 09:05:47;;;;;;;7.53;4.40;;;;;;;;;;4999276;28;20209;-85
2023/03/07 09:08:16;;;;;;;5.77;4.87;;;;;;;;;;5001457;28;20185;-85
2023/03/07 09:10:42;;;;;;;6.27;4.90;;;;;;;;;;5017956;28;20199;-85
2023/03/07 09:13:08;;;;;;;7.33;5.23;;;;;;;;;;5015758;28;20226;-85
2023/03/07 09:15:34;;;;;;;8.70;4.97;;;;;;;;;;5016652;28;20192;-86
2023/03/07 09:18:08;;;;;;;6.50;5.07;;;;;;;;;;5004721;28;20232;-84
2023/03/07 09:20:36;;;;;;;7.30;5.40;;;;;;;;;;4998198;28;20275;-85
2023/03/07 09:23:02;;;;;;;8.27;5.43;;;;;;;;;;5002397;28;20180;-85
2023/03/07 09:25:29;;;;;;;8.03;5.10;;;;;;;;;;5015309;28;20237;-85
2023/03/07 09:27:55;;;;;;;5.90;5.27;;;;;;;;;;5010168;28;20209;-85
2023/03/07 09:30:26;;;;;;;6.47;5.10;;;;;;;;;;5010860;28;20190;-85
2023/03/07 09:32:52;;;;;;;5.63;4.73;;;;;;;;;;5016204;28;20165;-85
2023/03/07 09:35:21;;;;;;;6.37;4.70;;;;;;;;;;5017392;28;20183;-85
2023/03/07 09:37:48;;;;;;;6.63;5.07;;;;;;;;;;5005743;28;20177;-85
2023/03/07 09:40:25;;;;;;;5.87;5.10;;;;;;;;;;5017574;28;20187;-85
2023/03/07 09:42:57;;;;;;;6.00;5.47;;;;;;;;;;5005230;28;20180;-85
2023/03/07 09:45:38;;;;;;;6.27;5.67;;;;;;;;;;5015894;28;20207;-85
2023/03/07 09:48:13;;;;;;;6.97;5.80;;;;;;;;;;5014008;28;20185;-85
2023/03/07 09:50:54;;;;;;;6.93;6.23;;;;;;;;;;4997690;28;20177;-85
2023/03/07 09:53:41;;;;;;;6.10;5.50;;;;;;;;;;5012886;28;20169;-85
2023/03/07 09:56:13;;;;;;;6.70;6.10;;;;;;;;;;4997980;28;20193;-85
2023/03/07 09:58:43;;;;;;;6.10;5.50;;;;;;;;;;5000995;28;20188;-84
2023/03/07 10:01:11;;;;;;;7.27;5.63;;;;;;;;;;5016523;28;20192;-85
2023/03/07 10:04:09;;;;;;;6.60;5.97;;;;;;;;;;4997348;28;20196;-85
2023/03/07 10:06:40;;;;;;;6.40;5.80;;;;;;;;;;4953789;28;20220;-84
2023/03/07 10:09:12;;;;;;;8.30;6.43;;;;;;;;;;5007378;28;20196;-85
2023/03/07 10:11:51;;;;;;;6.70;6.00;;;;;;;;;;5014993;28;20177;-85
2023/03/07 10:14:24;;;;;;;7.27;6.47;;;;;;;;;;4996440;28;20184;-84
2023/03/07 10:16:53;;;;;;;9.17;6.90;;;;;;;;;;5004926;28;20191;-84
2023/03/07 10:19:22;;;;;;;7.47;6.67;;;;;;;;;;5000690;28;20189;-84
2023/03/07 10:22:09;;;;;;;7.07;6.37;;;;;;;;;;5014607;28;20184;-84
2023/03/07 10:24:46;;;;;;;6.80;6.10;;;;;;;;;;5000450;28;20192;-84
2023/03/07 10:27:13;;;;;;;7.10;5.70;;;;;;;;;;5009798;28;20216;-84
2023/03/07 10:29:45;;;;;;;6.63;5.93;;;;;;;;;;5014187;28;20269;-84
2023/03/07 10:32:32;;;;;;;6.07;5.47;;;;;;;;;;5009734;28;20192;-84
2023/03/07 10:35:10;;;;;;;5.73;5.03;;;;;;;;;;5016541;28;20180;-84
2023/03/07 10:37:55;;;;;;;7.33;5.57;;;;;;;;;;5007713;28;20184;-85
2023/03/07 10:40:24;;;;;;;5.80;5.13;;;;;;;;;;5014650;28;20180;-85
2023/03/07 10:42:58;;;;;;;8.63;5.57;;;;;;;;;;5016245;28;20199;-85
2023/03/07 10:45:29;;;;;;;7.33;5.13;;;;;;;;;;5016236;28;20208;-85
2023/03/07 10:47:58;;;;;;;5.03;4.53;;;;;;;;;;5004522;28;20228;-85
2023/03/07 10:50:31;;;;;;;6.50;4.03;;;;;;;;;;5011948;28;20184;-85
2023/03/07 10:52:57;;;;;;;5.20;4.30;;;;;;;;;;5012158;28;20185;-84
2023/03/07 10:55:43;;;;;;;4.27;3.87;;;;;;;;;;5015470;28;20243;-85
2023/03/07 10:58:26;;;;;;;4.73;3.80;;;;;;;;;;4996874;28;20169;-85
2023/03/07 11:01:09;;;;;;;5.13;3.80;;;;;;;;;;5015913;28;20275;-85
2023/03/07 11:03:47;;;;;;;5.70;4.00;;;;;;;;;;4998787;28;20275;-85
2023/03/07 11:06:32;;;;;;;4.43;3.97;;;;;;;;;;5009401;28;20250;-85
2023/03/07 11:09:08;;;;;;;4.67;3.30;;;;;;;;;;4998805;28;20212;-84
2023/03/07 11:11:35;;;;;;;4.40;3.40;;;;;;;;;;5002687;28;20181;-85
2023/03/07 11:14:12;;;;;;;4.73;3.50;;;;;;;;;;5012797;28;20264;-85
2023/03/07 11:16:52;;;;;;;4.37;3.00;;;;;;;;;;5013117;28;20191;-84
2023/03/07 11:19:37;;;;;;;3.27;2.97;;;;;;;;;;5011047;28;20184;-85
2023/03/07 11:22:21;;;;;;;3.83;3.20;;;;;;;;;;5003887;28;20188;-84
2023/03/07 11:25:10;;;;;;;3.77;2.87;;;;;;;;;;5017330;28;20180;-84
2023/03/07 11:27:46;;;;;;;4.13;2.87;;;;;;;;;;5008829;28;20181;-84
2023/03/07 11:30:25;;;;;;;5.03;2.73;;;;;;;;;;5003065;28;20268;-84
2023/03/07 11:33:02;;;;;;;5.17;2.77;;;;;;;;;;5015544;28;20211;-84
2023/03/07 11:35:42;;;;;;;4.47;2.90;;;;;;;;;;5018264;28;20192;-84
2023/03/07 11:38:27;;;;;;;3.17;2.80;;;;;;;;;;5007511;28;20177;-84
2023/03/07 11:40:53;;;;;;;5.57;2.73;;;;;;;;;;5019538;28;20197;-83
2023/03/07 11:43:34;;;;;;;3.33;3.00;;;;;;;;;;5010037;28;20253;-84
2023/03/07 11:46:07;;;;;;;5.90;3.07;;;;;;;;;;5019258;28;20204;-84
2023/03/07 11:48:50;;;;;;;4.90;2.67;;;;;;;;;;5008484;28;20255;-84
2023/03/07 11:51:26;;;;;;;6.53;3.13;;;;;;;;;;5019439;28;20210;-83
2023/03/07 11:54:14;;;;;;;5.40;2.90;;;;;;;;;;5008665;28;20182;-83
2023/03/07 11:56:44;;;;;;;4.23;2.63;;;;;;;;;;5004108;28;20178;-84
2023/03/07 11:59:29;;;;;;;2.53;2.33;;;;;;;;;;5000069;28;20186;-83
2023/03/07 12:02:01;;;;;;;5.77;3.27;;;;;;;;;;5010924;28;20220;-83
2023/03/07 12:04:27;;;;;;;5.43;2.60;;;;;;;;;;5001541;28;20182;-83
2023/03/07 12:06:56;;;;;;;4.13;2.40;;;;;;;;;;5005527;28;20215;-84
2023/03/07 12:09:28;;;;;;;3.27;2.43;;;;;;;;;;5007081;28;20260;-84
2023/03/07 12:12:10;;;;;;;5.57;2.50;;;;;;;;;;4999530;28;20207;-83
2023/03/07 12:14:36;;;;;;;3.23;2.47;;;;;;;;;;5003586;28;20189;-84
2023/03/07 12:17:08;;;;;;;4.77;2.53;;;;;;;;;;5011124;28;20228;-84
2023/03/07 12:19:34;;;;;;;5.57;2.80;;;;;;;;;;5018916;28;20192;-83
2023/03/07 12:22:18;;;;;;;4.40;2.50;;;;;;;;;;5017711;28;20211;-84
2023/03/07 12:24:54;;;;;;;4.47;2.77;;;;;;;;;;5004195;28;20188;-84
2023/03/07 12:27:27;;;;;;;7.57;2.80;;;;;;;;;;5016168;28;20226;-84
2023/03/07 12:29:58;;;;;;;3.73;2.53;;;;;;;;;;5016072;28;20180;-83
2023/03/07 12:32:25;;;;;;;4.53;2.80;;;;;;;;;;5012293;28;20264;-84
2023/03/07 12:34:55;;;;;;;4.40;2.70;;;;;;;;;;5018500;28;20191;-84
2023/03/07 12:37:27;;;;;;;3.50;2.90;;;;;;;;;;5018419;28;20196;-84
2023/03/07 12:39:55;;;;;;;3.77;2.47;;;;;;;;;;5015095;28;20285;-85
2023/03/07 12:42:30;;;;;;;3.83;2.50;;;;;;;;;;5013960;28;20219;-84
2023/03/07 12:44:59;;;;;;;3.23;2.23;;;;;;;;;;5003824;28;20180;-85
2023/03/07 12:47:25;;;;;;;3.80;2.20;;;;;;;;;;5012331;28;20217;-84
2023/03/07 12:49:54;;;;;;;2.90;2.37;;;;;;;;;;5002598;28;20284;-84
2023/03/07 12:52:40;;;;;;;2.53;1.90;;;;;;;;;;5003298;28;20200;-84
2023/03/07 12:55:16;;;;;;;1.70;1.60;;;;;;;;;;5013462;28;20271;-85
2023/03/07 12:57:49;;;;;;;2.10;1.90;;;;;;;;;;5032803;28;20196;-84
2023/03/07 13:00:22;;;;;;;1.77;1.40;;;;;;;;;;5013697;28;20182;-84
2023/03/07 13:02:52;;;;;;;2.40;1.50;;;;;;;;;;5014657;28;20188;-84
2023/03/07 13:05:21;;;;;;;4.03;1.70;;;;;;;;;;4998447;28;20232;-84
2023/03/07 13:07:48;;;;;;;2.67;2.07;;;;;;;;;;5006038;28;20176;-84
2023/03/07 13:10:17;;;;;;;2.47;1.40;;;;;;;;;;5016333;28;20185;-85
2023/03/07 13:12:46;;;;;;;2.30;1.30;;;;;;;;;;5017160;28;20215;-84
2023/03/07 13:15:18;;;;;;;2.97;1.20;;;;;;;;;;5013615;28;20173;-84
2023/03/07 13:17:44;;;;;;;3.50;1.40;;;;;;;;;;5004440;28;20188;-84
2023/03/07 13:20:17;;;;;;;2.33;1.13;;;;;;;;;;5017062;28;20169;-84
2023/03/07 13:22:43;;;;;;;4.00;1.47;;;;;;;;;;5017525;28;20189;-84
2023/03/07 13:25:29;;;;;;;3.00;1.30;;;;;;;;;;5005950;28;20224;-84
2023/03/07 13:28:03;;;;;;;3.93;1.70;;;;;;;;;;5015096;28;20196;-84
2023/03/07 13:30:30;;;;;;;3.80;1.10;;;;;;;;;;5014330;28;20184;-84
2023/03/07 13:33:00;;;;;;;3.30;1.23;;;;;;;;;;5001796;28;20205;-84
2023/03/07 13:35:32;;;;;;;3.17;1.23;;;;;;;;;;5010109;28;20189;-84
2023/03/07 13:38:17;;;;;;;3.67;1.17;;;;;;;;;;4997988;28;20213;-84
2023/03/07 13:40:46;;;;;;;3.13;1.33;;;;;;;;;;5010095;28;20188;-84
2023/03/07 13:43:21;;;;;;;2.43;1.00;;;;;;;;;;5015898;28;20179;-84
2023/03/07 13:45:47;;;;;;;3.77;1.20;;;;;;;;;;5014453;28;20250;-84
2023/03/07 13:48:22;;;;;;;2.93;1.30;;;;;;;;;;5016978;28;20230;-84
2023/03/07 13:50:50;;;;;;;2.00;1.40;;;;;;;;;;5016374;28;20191;-84
2023/03/07 13:53:21;;;;;;;1.30;1.03;;;;;;;;;;5017562;28;20161;-84
2023/03/07 13:56:08;;;;;;;2.63;1.80;;;;;;;;;;5017519;28;20184;-84
2023/03/07 13:58:42;;;;;;;6.13;1.80;;;;;;;;;;4967687;28;20276;-84
2023/03/07 14:01:19;;;;;;;3.97;1.50;;;;;;;;;;5017288;28;20176;-84
2023/03/07 14:03:47;;;;;;;2.40;1.70;;;;;;;;;;5014363;28;20264;-94
2023/03/07 14:06:17;;;;;;;2.73;1.47;;;;;;;;;;4998635;28;20212;-93
2023/03/07 14:08:44;;;;;;;2.07;1.20;;;;;;;;;;4998202;28;20180;-94
2023/03/07 14:11:31;;;;;;;1.83;1.20;;;;;;;;;;4998743;28;20173;-92
2023/03/07 14:14:23;;;;;;;3.60;1.17;;;;;;;;;;4950114;28;20212;-94
2023/03/07 14:16:54;;;;;;;2.87;1.30;;;;;;;;;;4998071;28;20181;-93
2023/03/07 14:19:20;;;;;;;1.73;1.30;;;;;;;;;;5001337;28;20181;-92
2023/03/07 14:21:53;;;;;;;3.23;1.30;;;;;;;;;;5023438;28;20186;-93
2023/03/07 14:24:51;;;;;;;4.83;1.57;;;;;;;;;;5023460;28;20181;-95
2023/03/07 14:27:17;;;;;;;2.13;1.17;;;;;;;;;;4965707;28;20231;-93
2023/03/07 14:29:55;;;;;;;1.67;1.20;;;;;;;;;;5018986;28;20176;-94
2023/03/07 14:32:29;;;;;;;2.80;1.37;;;;;;;;;;5018359;28;20207;-92
2023/03/07 14:34:58;;;;;;;2.33;1.10;;;;;;;;;;5021748;28;20184;-94
2023/03/07 14:37:28;;;;;;;2.43;1.00;;;;;;;;;;5018228;28;20184;-93
2023/03/07 14:40:12;;;;;;;3.70;1.00;;;;;;;;;;5007621;28;20181;-93
2023/03/07 14:42:58;;;;;;;5.23;1.10;;;;;;;;;;5000568;28;20178;-93
2023/03/07 14:45:32;;;;;;;2.63;1.40;;;;;;;;;;5017738;28;20173;-93
2023/03/07 14:47:58;;;;;;;2.17;1.10;;;;;;;;;;5017240;28;20263;-93
2023/03/07 14:50:26;;;;;;;4.60;1.20;;;;;;;;;;5017847;28;20218;-93
2023/03/07 14:52:57;;;;;;;1.93;1.10;;;;;;;;;;5018125;28;20212;-94
2023/03/07 14:55:24;;;;;;;3.00;1.40;;;;;;;;;;5005780;28;20181;-92
2023/03/07 14:57:54;;;;;;;2.13;1.23;;;;;;;;;;5016744;28;20219;-93
2023/03/07 15:00:23;;;;;;;6.43;1.43;;;;;;;;;;5017190;28;20173;-93
2023/03/07 15:02:52;;;;;;;6.07;1.20;;;;;;;;;;5017583;28;20203;-94